Commit Graph

91 Commits

Author SHA1 Message Date
nemu 78c29bd385 removed parallel tree 2009-09-07 10:41:24 +00:00
nemu 75d1447c3c allow to get the msr2data input form even when no tab is present 2009-08-31 13:34:00 +00:00
nemu a751561e5e minor change concerning read file filters 2009-07-22 08:32:33 +00:00
nemu e682f30db5 added missing closing bracket 2009-06-30 13:14:05 +00:00
nemu aabe1ac559 fixed a severe bug in PTextEdit 2009-06-30 13:12:29 +00:00
nemu 39b854bdee add F5 for BMW 2009-06-29 05:06:11 +00:00
nemu d2229dcc81 added enable/disable feature for musrt0 in musrgui 2009-06-26 05:31:33 +00:00
nemu 622a1d704d added '-t' option to musrgui 2009-06-25 17:19:01 +00:00
nemu a983753912 not '//' in expanded paths anymore 2009-06-22 11:40:21 +00:00
Bastian M. Wojek f7fa4696b2 Restoring original Makefiles, accidentally changed 2009-06-19 20:40:00 +00:00
Bastian M. Wojek b5016637fd Added autotool-support for building musrfit - some additional tests are needed, the old Makefiles are still around 2009-06-19 20:37:06 +00:00
nemu c23d3a3a93 better handling of fitting process 2009-06-16 10:52:00 +00:00
nemu 11f34a21f6 some adaptation to the new Makefiles 2009-06-16 06:21:02 +00:00
Bastian M. Wojek ac7ff10e32 Changed the installation path of musrfit... 2009-06-12 10:59:59 +00:00
nemu a000bc75bd more flexible handling of paths 2009-06-10 12:58:57 +00:00
nemu 0c72367826 better handling of default paths 2009-06-10 11:35:01 +00:00
nemu d97cf92333 open after fitting feature implemented 2009-06-10 05:56:44 +00:00
nemu be274888dd eliminated infinite loop problem while replacing 2009-06-09 13:29:29 +00:00
nemu 0e1f33cc23 fixed fourier phase entry problem (MUSR-70) 2009-06-09 11:16:39 +00:00
nemu 51e257a276 some improvement concerning multiple tab copies of the same file (MUSR-70) 2009-06-09 09:06:28 +00:00
nemu 025601269b addons for cygwin/windows 2009-06-08 14:09:44 +00:00
Bastian M. Wojek 052dbe1e74 Sorry... again. 2009-06-06 16:49:12 +00:00
Bastian M. Wojek 9c21d1aec1 Corrected a small error in the musrgui.pro file which I introduced just before... 2009-06-06 16:31:23 +00:00
Bastian M. Wojek 41cc14fc1f Changed some Makefiles in order to make it possible to run musrfit with cygwin 2009-06-06 15:06:08 +00:00
nemu 4577590759 added info of the cursor position 2009-05-28 11:01:08 +00:00
nemu 78aa1f09fc modified printing such that line breaks are handled properly 2009-05-26 07:03:28 +00:00
nemu 3805013b5d improved (un)comment handling 2009-05-22 18:13:37 +00:00
nemu c89026c018 first primitive file watcher implemented 2009-05-22 11:38:21 +00:00
nemu de87bd27e5 fixed typo in plot block generation 2009-05-20 12:51:17 +00:00
nemu 9952a9df28 fix of MUSR-60: one runnumber in runlist does not work. 2009-05-20 12:47:47 +00:00
nemu 2a12a17881 fixed typo 2009-05-19 11:14:35 +00:00
nemu bdc1eec594 better handling of 'Close All'/'Close All Others' 2009-05-19 05:01:00 +00:00
nemu 6fb1c5e265 added a key to 'close all others' 2009-05-16 17:00:23 +00:00
nemu cb56ae9c8a some more close options 2009-05-16 09:18:22 +00:00
nemu 908cf0a478 some more work concerning find/replace 2009-05-14 19:26:30 +00:00
nemu 37c3aacc91 some more work on find/replace. Find part implemented apart from the 'selected text' option 2009-05-13 07:49:49 +00:00
nemu 8d75a68ad9 some more work towards find and replace 2009-05-08 07:14:08 +00:00
nemu 93be382bb5 some minor changes concerning tab handling and tab menus 2009-05-08 06:33:47 +00:00
nemu 85670c4717 added find/replace dialog. No functionality yet 2009-05-08 06:32:51 +00:00
nemu 97c8d379ac reload implemented 2009-05-07 06:41:55 +00:00
nemu 161079ff0c added some skeleton find structure to musrgui. Not functional yet. Added musrt0 functionality without reloading of the file 2009-05-07 05:46:18 +00:00
nemu c196c66b4e added msr-working-directory 2009-04-30 06:08:38 +00:00
nemu 8fb5d5eaa1 removed the ALT+F conflict 2009-04-27 05:20:44 +00:00
nemu fae9c0446e changed tab order 2009-04-24 15:22:38 +00:00
nemu 623120d4a3 moved 'chain fit' check box to the run template 2009-04-24 10:31:11 +00:00
nemu a2aee52521 added 'fixed template fit' feature 2009-04-24 09:24:03 +00:00
nemu 99dedce540 some memory leak 'fixes' 2009-04-20 14:12:26 +00:00
nemu 61f6fd1b9c added eventFilters and changed the behaviour of the return-key-pressed 2009-04-20 07:46:50 +00:00
nemu 01ee7c0196 fixing typo, adding eventFilters, etc. see (MUSR-44 in the tracker) 2009-04-20 06:50:06 +00:00
nemu 0b767470a5 improved (un)comment handling 2009-04-16 15:25:37 +00:00